| Record Date MM/DD/YYYY | Record Time HH:MM:SS | Record Julian Date NNN day of the year | Air Temperature Max (Degrees Fahrenheit F) | Time Max Air Temperature HH:MM:SS This is the time of max air temp for the prior hour interval listed for record [Time]. | Air Temperature Min (Degrees Fahrenheit F) | Time Min Air Temperature HH:MM:SS This is the time of min air temp for the prior hour interval listed for record [Time]. | Air Temperature Observed (Degrees Fahrenheit F) This is an instantaneous reading at the record [Time]. | Relative Humidity Max (Percent) | Time Max Relative Humidity HH:MM:SS This is the time of max relative humidity for the prior hour interval listed for record [Time]. | Relative Humidity Min (Percent) | Time Min Relative Humidity HH:MM:SS This is the time of min relative humidity for the prior hour interval listed for record [Time]. | Relative Humidity Observed (Percent) This is an instantaneous reading at the record [Time]. | Precipitation (Inches n.nn) rain fall that occurred during the prior hour interval listed for record [Time]. | Wind Speed (Miles Per Hour) Resultant Speed that occurred during the prior hour interval listed for record [Time]. | Wind Direction (Degrees) Resultant Direction that occurred during the prior hour interval listed for record [Time]. | Solar Radiation (Langley's) that occurred during the prior hour interval listed for record [Time]. | Soil Temperature Average at 2 inch depth (Degrees Fahrenheit F) that occurred during the prior hour interval listed for record [Time]. | Soil Temperature Observed at 2 inch depth (Degrees Fahrenheit F) This is an instantaneous reading at the record [Time]. | Soil Temperature Average at 4 inch depth (Degrees Fahrenheit F) that occurred during the prior hour interval listed for record [Time]. | Soil Temperature Observed at 4 inch depth (Degrees Fahrenheit F) This is an instantaneous reading at the record [Time]. |
|---|---|---|---|---|---|---|---|---|---|---|---|---|---|---|---|---|---|---|---|---|
| 08/28/2026 | 0:00:00 | 240 | 75 | 23:00:01 | 74 | 23:57:02 | 74 | 97 | 23:36:04 | 96 | 23:05:02 | 96.4 | 0 | 0.2 | 8 | 0 | 83 | 83 | 84 | 84 |
| 08/28/2026 | 1:00:00 | 240 | 75 | 0:12:00 | 74 | 0:59:02 | 74 | 97 | 0:45:05 | 96 | 0:00:00 | 97 | 0 | 0.3 | 156 | 0 | 83 | 82 | 83 | 83 |
| 08/28/2026 | 2:00:00 | 240 | 74 | 1:04:04 | 73 | 1:55:01 | 74 | 97 | 1:59:04 | 97 | 1:01:05 | 97.4 | 0 | 0.1 | 354 | 0 | 82 | 82 | 83 | 83 |
| 08/28/2026 | 3:00:00 | 240 | 74 | 2:38:05 | 73 | 2:59:05 | 73 | 98 | 2:37:01 | 97 | 2:09:05 | 97.4 | 0 | 0.3 | 113 | 0 | 82 | 82 | 83 | 82 |
| 08/28/2026 | 4:00:00 | 240 | 73 | 3:36:02 | 73 | 3:50:01 | 73 | 98 | 3:55:05 | 97 | 3:08:05 | 97.9 | 0 | 0.3 | 45 | 0 | 81 | 81 | 82 | 82 |
| 08/28/2026 | 5:00:00 | 240 | 73 | 4:01:01 | 72 | 4:54:01 | 72 | 98 | 4:47:03 | 98 | 4:10:02 | 98 | 0 | 0.1 | 84 | 0 | 81 | 81 | 82 | 82 |
| 08/28/2026 | 6:00:00 | 240 | 72 | 5:00:04 | 72 | 5:28:04 | 72 | 98 | 5:59:05 | 98 | 5:22:03 | 98.1 | 0 | 0.4 | 19 | 1 | 81 | 81 | 82 | 82 |
| 08/28/2026 | 7:00:00 | 240 | 77 | 6:58:01 | 72 | 6:00:00 | 77 | 99 | 6:19:01 | 96 | 6:59:03 | 95.7 | 0 | 0.2 | 160 | 12 | 81 | 81 | 81 | 81 |
| 08/28/2026 | 8:00:00 | 240 | 83 | 7:59:03 | 77 | 7:01:05 | 83 | 96 | 7:00:00 | 84 | 7:39:04 | 85.4 | 0 | 0.3 | 20 | 28 | 81 | 81 | 81 | 81 |
| 08/28/2026 | 9:00:00 | 240 | 87 | 8:59:04 | 82 | 8:08:01 | 87 | 86 | 8:09:02 | 77 | 8:58:00 | 77.78 | 0 | 1.9 | 346 | 42 | 81 | 82 | 81 | 82 |
| 08/28/2026 | 10:00:00 | 240 | 89 | 9:52:04 | 86 | 9:08:00 | 88 | 79 | 9:10:04 | 68 | 10:00:00 | 68.43 | 0 | 3.6 | 13 | 59 | 82 | 83 | 82 | 82 |
| 08/28/2026 | 11:00:00 | 240 | 90 | 10:40:03 | 88 | 10:52:01 | 90 | 75 | 10:03:03 | 63 | 10:22:04 | 65.13 | 0 | 3.6 | 6 | 62 | 84 | 84 | 82 | 83 |
| 08/28/2026 | 12:00:00 | 240 | 91 | 11:45:03 | 89 | 11:26:04 | 91 | 72 | 11:06:00 | 61 | 11:58:02 | 63.67 | 0 | 3.6 | 29 | 74 | 85 | 86 | 83 | 84 |
| 08/28/2026 | 13:00:00 | 240 | 92 | 12:31:03 | 88 | 12:52:00 | 88 | 67 | 12:09:05 | 53 | 12:28:05 | 62.75 | 0 | 5.2 | 16 | 54 | 86 | 87 | 84 | 85 |
| 08/28/2026 | 14:00:00 | 240 | 93 | 13:58:00 | 88 | 13:00:01 | 93 | 66 | 13:14:05 | 49 | 13:48:01 | 51.85 | 0 | 3.8 | 38 | 54 | 87 | 87 | 85 | 85 |
| 08/28/2026 | 15:00:00 | 240 | 93 | 14:53:03 | 91 | 14:22:03 | 93 | 58 | 14:02:01 | 46 | 14:35:02 | 51.98 | 0 | 4.3 | 44 | 59 | 87 | 88 | 86 | 86 |
| 08/28/2026 | 16:00:00 | 240 | 93 | 15:34:05 | 92 | 15:26:01 | 92 | 54 | 15:00:02 | 44 | 15:49:03 | 47.73 | 0 | 3.8 | 62 | 45 | 88 | 87 | 86 | 86 |
| 08/28/2026 | 17:00:00 | 240 | 93 | 16:08:02 | 90 | 16:58:04 | 90 | 63 | 16:56:05 | 44 | 16:17:03 | 60.67 | 0 | 2.3 | 86 | 21 | 87 | 87 | 86 | 86 |
| 08/28/2026 | 18:00:00 | 240 | 90 | 17:00:00 | 84 | 17:59:05 | 84 | 74 | 17:59:05 | 59 | 17:01:01 | 73.71 | 0 | 2.8 | 138 | 9 | 87 | 86 | 86 | 86 |
| 08/28/2026 | 19:00:00 | 240 | 84 | 18:00:00 | 78 | 18:59:05 | 78 | 88 | 18:59:02 | 74 | 18:00:00 | 87.7 | 0 | 1.0 | 9 | 0 | 86 | 85 | 86 | 85 |
| 08/28/2026 | 20:00:00 | 240 | 78 | 19:00:03 | 76 | 19:59:04 | 76 | 91 | 19:59:05 | 88 | 19:00:00 | 90.7 | 0 | 1.2 | 357 | 0 | 85 | 85 | 85 | 85 |
| 08/28/2026 | 21:00:00 | 240 | 76 | 20:42:05 | 75 | 20:56:05 | 75 | 92 | 20:42:05 | 89 | 20:51:03 | 90.8 | 0 | 0.8 | 6 | 0 | 84 | 84 | 85 | 84 |
| 08/28/2026 | 22:00:00 | 240 | 75 | 21:00:00 | 74 | 21:58:00 | 74 | 92 | 21:59:04 | 89 | 21:43:02 | 92.3 | 0 | 0.3 | 45 | 0 | 84 | 83 | 84 | 84 |
| 08/28/2026 | 23:00:00 | 240 | 74 | 22:08:03 | 73 | 22:53:04 | 73 | 94 | 22:59:05 | 92 | 22:03:01 | 94.2 | 0 | 0.4 | 36 | 0 | 83 | 83 | 84 | 83 |
| 08/29/2026 | 0:00:00 | 241 | 73 | 23:07:01 | 72 | 0:00:00 | 72 | 96 | 23:50:04 | 94 | 23:01:03 | 95.2 | 0 | 0.4 | 20 | 0 | 82 | 82 | 83 | 83 |
| 08/29/2026 | 1:00:00 | 241 | 72 | 0:00:00 | 71 | 0:58:02 | 71 | 96 | 0:59:01 | 95 | 0:04:00 | 96 | 0 | 0.0 | 192 | 0 | 82 | 82 | 83 | 83 |
| 08/29/2026 | 2:00:00 | 241 | 71 | 1:02:03 | 70 | 1:58:00 | 70 | 97 | 1:47:03 | 96 | 1:12:05 | 96.6 | 0 | 0.0 | 145 | 0 | 81 | 81 | 82 | 82 |
| 08/29/2026 | 3:00:00 | 241 | 70 | 2:30:00 | 69 | 2:58:04 | 69 | 97 | 2:15:02 | 95 | 2:37:05 | 95.6 | 0 | 0.4 | 135 | 0 | 81 | 81 | 82 | 82 |
| 08/29/2026 | 4:00:00 | 241 | 69 | 3:14:05 | 67 | 3:59:04 | 67 | 97 | 3:36:03 | 96 | 3:06:04 | 95.9 | 0 | 0.1 | 355 | 0 | 80 | 80 | 82 | 81 |
| 08/29/2026 | 5:00:00 | 241 | 68 | 4:06:05 | 67 | 4:58:02 | 67 | 97 | 4:06:01 | 96 | 4:00:01 | 96.3 | 0 | 0.2 | 360 | 0 | 80 | 79 | 81 | 81 |
| 08/29/2026 | 6:00:00 | 241 | 67 | 5:08:05 | 66 | 5:41:03 | 66 | 97 | 5:50:05 | 96 | 5:00:03 | 96.8 | 0 | 0.3 | 2 | 0 | 79 | 79 | 81 | 80 |
| 08/29/2026 | 7:00:00 | 241 | 72 | 7:00:00 | 66 | 6:00:00 | 72 | 98 | 6:12:05 | 90 | 6:57:01 | 91.1 | 0 | 0.6 | 118 | 13 | 79 | 79 | 80 | 80 |
| 08/29/2026 | 8:00:00 | 241 | 80 | 7:56:02 | 72 | 7:00:01 | 80 | 91 | 7:00:00 | 72 | 7:52:02 | 73.99 | 0 | 0.9 | 94 | 30 | 79 | 79 | 80 | 80 |
| 08/29/2026 | 9:00:00 | 241 | 83 | 8:54:00 | 80 | 8:00:00 | 83 | 77 | 8:18:03 | 69 | 8:40:02 | 72.07 | 0 | 1.6 | 4 | 47 | 80 | 80 | 80 | 80 |
| 08/29/2026 | 10:00:00 | 241 | 87 | 9:51:03 | 83 | 9:00:05 | 86 | 75 | 9:01:03 | 60 | 9:59:01 | 65.14 | 0 | 2.2 | 8 | 61 | 81 | 81 | 80 | 81 |
| 08/29/2026 | 11:00:00 | 241 | 90 | 10:20:05 | 86 | 10:00:00 | 89 | 68 | 10:01:02 | 48 | 10:58:00 | 54.67 | 0 | 2.8 | 7 | 71 | 82 | 83 | 81 | 82 |
| 08/29/2026 | 12:00:00 | 241 | 91 | 11:37:04 | 89 | 11:04:03 | 90 | 59 | 11:09:02 | 41 | 11:24:01 | 47.31 | 0 | 4.5 | 4 | 76 | 84 | 84 | 82 | 83 |
| 08/29/2026 | 13:00:00 | 241 | 92 | 13:00:00 | 90 | 12:00:00 | 92 | 54 | 12:33:02 | 43 | 12:03:05 | 48.83 | 0 | 4.0 | 18 | 76 | 85 | 86 | 83 | 84 |
| 08/29/2026 | 14:00:00 | 241 | 93 | 13:46:02 | 91 | 13:04:04 | 92 | 51 | 13:11:01 | 39 | 13:19:03 | 48.55 | 0 | 3.4 | 17 | 72 | 86 | 87 | 84 | 85 |
| 08/29/2026 | 15:00:00 | 241 | 94 | 14:24:05 | 92 | 14:38:00 | 93 | 48 | 14:00:00 | 37 | 14:07:02 | 42.22 | 0 | 3.0 | 333 | 61 | 87 | 87 | 85 | 85 |
| 08/29/2026 | 16:00:00 | 241 | 94 | 15:50:04 | 93 | 15:20:02 | 93 | 45 | 15:01:02 | 36 | 15:39:05 | 40.29 | 0 | 2.9 | 344 | 43 | 87 | 87 | 86 | 86 |
| 08/29/2026 | 17:00:00 | 241 | 93 | 16:20:03 | 92 | 16:59:02 | 92 | 47 | 16:59:04 | 36 | 16:05:03 | 44.35 | 0 | 2.8 | 3 | 17 | 87 | 87 | 86 | 86 |
| 08/29/2026 | 18:00:00 | 241 | 92 | 17:00:00 | 82 | 18:00:00 | 82 | 74 | 18:00:00 | 44 | 17:00:01 | 73.69 | 0 | 1.8 | 3 | 12 | 86 | 86 | 85 | 85 |
| 08/29/2026 | 19:00:00 | 241 | 82 | 18:00:01 | 76 | 18:56:00 | 76 | 86 | 18:33:01 | 74 | 18:00:00 | 83.3 | 0 | 1.1 | 1 | 1 | 85 | 85 | 85 | 85 |
| 08/29/2026 | 20:00:00 | 241 | 76 | 19:00:00 | 74 | 19:59:05 | 74 | 88 | 19:46:04 | 83 | 19:39:03 | 86.1 | 0 | 0.5 | 12 | 0 | 84 | 84 | 84 | 84 |
| 08/29/2026 | 21:00:00 | 241 | 74 | 20:00:01 | 72 | 20:56:04 | 72 | 89 | 20:14:01 | 86 | 20:58:05 | 85.8 | 0 | 0.2 | 360 | 0 | 83 | 83 | 84 | 84 |
| 08/29/2026 | 22:00:00 | 241 | 73 | 21:15:05 | 71 | 21:36:03 | 72 | 91 | 21:59:05 | 85 | 21:05:02 | 90.4 | 0 | 0.1 | 43 | 0 | 83 | 82 | 83 | 83 |
| 08/29/2026 | 23:00:00 | 241 | 72 | 22:00:01 | 70 | 22:59:04 | 70 | 91 | 22:54:02 | 89 | 22:20:04 | 91.1 | 0 | 0.1 | 343 | 0 | 82 | 82 | 83 | 83 |
| 08/30/2026 | 0:00:00 | 242 | 72 | 23:37:05 | 70 | 23:01:03 | 71 | 94 | 23:35:02 | 91 | 23:01:03 | 93.3 | 0 | 0.3 | 288 | 0 | 81 | 81 | 82 | 82 |
| 08/30/2026 | 1:00:00 | 242 | 72 | 0:35:03 | 71 | 0:18:05 | 71 | 94 | 0:43:00 | 93 | 0:10:02 | 93.7 | 0 | 0.4 | 340 | 0 | 81 | 81 | 82 | 82 |
| 08/30/2026 | 2:00:00 | 242 | 73 | 2:00:00 | 71 | 1:16:05 | 73 | 94 | 1:05:05 | 88 | 1:58:02 | 89 | 0 | 0.5 | 61 | 0 | 81 | 81 | 82 | 81 |
| 08/30/2026 | 3:00:00 | 242 | 73 | 2:25:00 | 72 | 2:49:03 | 73 | 91 | 2:47:00 | 88 | 2:21:05 | 90 | 0 | 0.5 | 94 | 0 | 80 | 80 | 81 | 81 |
| 08/30/2026 | 4:00:00 | 242 | 74 | 3:58:05 | 73 | 3:19:04 | 73 | 92 | 3:44:03 | 89 | 3:03:01 | 91 | 0 | 0.8 | 91 | 0 | 80 | 80 | 81 | 81 |
| 08/30/2026 | 5:00:00 | 242 | 73 | 4:00:01 | 71 | 4:59:01 | 71 | 95 | 4:50:01 | 91 | 4:03:00 | 94.4 | 0 | 0.5 | 115 | 0 | 80 | 80 | 81 | 81 |
| 08/30/2026 | 6:00:00 | 242 | 72 | 5:22:05 | 71 | 5:08:00 | 72 | 96 | 5:21:00 | 94 | 5:00:03 | 95.5 | 0 | 0.1 | 73 | 0 | 80 | 80 | 81 | 81 |
| 08/30/2026 | 7:00:00 | 242 | 79 | 7:00:00 | 72 | 6:05:00 | 79 | 96 | 6:13:03 | 87 | 6:58:04 | 87.9 | 0 | 0.7 | 44 | 11 | 80 | 80 | 80 | 80 |
| 08/30/2026 | 8:00:00 | 242 | 83 | 7:58:02 | 79 | 7:04:02 | 82 | 88 | 7:19:02 | 83 | 7:59:00 | 82.8 | 0 | 2.9 | 140 | 28 | 80 | 80 | 80 | 80 |
| 08/30/2026 | 9:00:00 | 242 | 86 | 8:51:03 | 82 | 8:06:00 | 86 | 85 | 8:07:00 | 74 | 8:58:02 | 76.15 | 0 | 2.9 | 161 | 45 | 81 | 81 | 81 | 81 |
| 08/30/2026 | 10:00:00 | 242 | 88 | 10:00:00 | 85 | 9:00:05 | 88 | 77 | 9:00:01 | 67 | 9:58:01 | 71.74 | 0 | 3.3 | 162 | 56 | 82 | 82 | 81 | 81 |
| 08/30/2026 | 11:00:00 | 242 | 90 | 10:42:05 | 88 | 10:59:04 | 88 | 73 | 10:19:03 | 62 | 10:47:02 | 66.07 | 0 | 3.3 | 165 | 62 | 83 | 84 | 82 | 82 |
| 08/30/2026 | 12:00:00 | 242 | 92 | 11:55:02 | 87 | 11:01:01 | 90 | 72 | 11:02:00 | 58 | 11:55:05 | 60.46 | 0 | 3.6 | 143 | 71 | 84 | 85 | 83 | 83 |
| 08/30/2026 | 13:00:00 | 242 | 94 | 13:00:00 | 90 | 12:06:03 | 94 | 67 | 12:07:05 | 55 | 12:30:01 | 60.14 | 0 | 3.6 | 154 | 66 | 86 | 86 | 84 | 84 |
| 08/30/2026 | 14:00:00 | 242 | 95 | 13:40:04 | 91 | 13:54:02 | 93 | 63 | 13:57:05 | 53 | 13:34:01 | 56.54 | 0 | 4.2 | 148 | 63 | 87 | 87 | 84 | 85 |
| 08/30/2026 | 15:00:00 | 242 | 95 | 14:36:05 | 91 | 14:54:02 | 93 | 60 | 14:08:04 | 49 | 14:37:02 | 53.68 | 0 | 4.2 | 146 | 51 | 88 | 88 | 85 | 85 |
| 08/30/2026 | 16:00:00 | 242 | 95 | 15:29:02 | 93 | 15:00:00 | 94 | 57 | 15:00:03 | 50 | 15:41:00 | 53.13 | 0 | 4.0 | 151 | 49 | 88 | 88 | 86 | 86 |
| 08/30/2026 | 17:00:00 | 242 | 95 | 16:12:03 | 92 | 16:52:05 | 92 | 58 | 16:07:02 | 49 | 16:22:00 | 56.32 | 0 | 3.2 | 121 | 30 | 87 | 87 | 86 | 86 |
| 08/30/2026 | 18:00:00 | 242 | 93 | 17:02:03 | 89 | 18:00:00 | 89 | 70 | 18:00:00 | 53 | 17:04:00 | 70.33 | 0 | 1.7 | 97 | 12 | 87 | 86 | 86 | 85 |
| 08/30/2026 | 19:00:00 | 242 | 89 | 18:00:00 | 84 | 18:59:05 | 84 | 79 | 18:14:04 | 68 | 18:55:01 | 73.03 | 0 | 1.8 | 43 | 1 | 86 | 85 | 85 | 85 |
| 08/30/2026 | 20:00:00 | 242 | 84 | 19:00:00 | 79 | 20:00:00 | 79 | 88 | 19:59:01 | 72 | 19:01:02 | 87.7 | 0 | 0.5 | 86 | 0 | 85 | 85 | 85 | 85 |
| 08/30/2026 | 21:00:00 | 242 | 79 | 20:00:01 | 78 | 20:15:02 | 79 | 88 | 20:06:01 | 82 | 20:39:04 | 86.6 | 0 | 0.0 | 73 | 0 | 84 | 84 | 84 | 84 |
| 08/30/2026 | 22:00:00 | 242 | 79 | 21:00:00 | 77 | 21:59:05 | 77 | 90 | 21:46:00 | 83 | 21:22:01 | 88.4 | 0 | 0.0 | 56 | 0 | 84 | 83 | 84 | 84 |
| 08/30/2026 | 23:00:00 | 242 | 77 | 22:00:00 | 76 | 22:25:03 | 76 | 92 | 22:59:02 | 88 | 22:30:05 | 91.6 | 0 | 0.3 | 30 | 0 | 83 | 83 | 83 | 83 |
| 08/31/2026 | 0:00:00 | 243 | 76 | 23:00:00 | 75 | 23:56:05 | 75 | 94 | 23:59:04 | 91 | 23:22:00 | 93.8 | 0 | 0.1 | 181 | 0 | 83 | 82 | 83 | 83 |
| 08/31/2026 | 1:00:00 | 243 | 75 | 0:04:01 | 74 | 0:59:03 | 74 | 94 | 0:04:03 | 92 | 0:34:02 | 93.5 | 0 | 0.3 | 21 | 0 | 82 | 82 | 83 | 83 |
| 08/31/2026 | 2:00:00 | 243 | 75 | 1:22:01 | 73 | 1:50:03 | 74 | 95 | 1:53:03 | 93 | 1:17:05 | 94.7 | 0 | 0.4 | 30 | 0 | 82 | 82 | 82 | 82 |
| 08/31/2026 | 3:00:00 | 243 | 74 | 2:00:04 | 73 | 2:48:03 | 73 | 95 | 2:35:04 | 94 | 2:21:01 | 94.6 | 0 | 0.2 | 13 | 0 | 81 | 81 | 82 | 82 |
| 08/31/2026 | 4:00:00 | 243 | 73 | 3:05:01 | 73 | 3:59:01 | 73 | 96 | 3:54:01 | 95 | 3:03:02 | 95.6 | 0 | 0.3 | 34 | 0 | 81 | 81 | 82 | 82 |
| 08/31/2026 | 5:00:00 | 243 | 73 | 4:41:03 | 72 | 4:58:02 | 72 | 96 | 4:41:02 | 96 | 4:00:00 | 96.2 | 0 | 0.8 | 27 | 0 | 81 | 81 | 82 | 81 |
| 08/31/2026 | 6:00:00 | 243 | 72 | 5:00:00 | 72 | 5:42:00 | 72 | 97 | 5:56:03 | 96 | 5:04:00 | 96.8 | 0 | 0.1 | 176 | 0 | 81 | 80 | 81 | 81 |
| 08/31/2026 | 7:00:00 | 243 | 78 | 6:59:05 | 72 | 6:01:01 | 78 | 98 | 6:17:03 | 88 | 6:58:05 | 88.8 | 0 | 0.0 | 272 | 12 | 80 | 80 | 81 | 81 |
| 08/31/2026 | 8:00:00 | 243 | 88 | 7:59:03 | 78 | 7:00:00 | 88 | 89 | 7:00:01 | 74 | 8:00:00 | 73.92 | 0 | 0.2 | 82 | 28 | 80 | 81 | 81 | 81 |
| 08/31/2026 | 9:00:00 | 243 | 89 | 8:59:05 | 86 | 8:26:05 | 89 | 77 | 8:27:05 | 68 | 9:00:00 | 68.4 | 0 | 1.6 | 97 | 45 | 81 | 82 | 81 | 81 |
| 08/31/2026 | 10:00:00 | 243 | 92 | 9:43:05 | 88 | 9:31:05 | 90 | 74 | 9:35:05 | 63 | 9:47:02 | 64.3 | 0 | 2.2 | 91 | 60 | 82 | 83 | 81 | 82 |
| 08/31/2026 | 11:00:00 | 243 | 92 | 10:24:04 | 90 | 11:00:00 | 90 | 71 | 10:38:02 | 59 | 10:53:03 | 63.99 | 0 | 2.5 | 106 | 58 | 84 | 84 | 82 | 83 |
| 08/31/2026 | 12:00:00 | 243 | 93 | 11:42:03 | 89 | 11:04:03 | 92 | 68 | 11:05:03 | 54 | 11:58:03 | 57.92 | 0 | 2.4 | 86 | 52 | 85 | 85 | 83 | 83 |
| 08/31/2026 | 13:00:00 | 243 | 95 | 12:30:03 | 91 | 12:47:01 | 94 | 63 | 12:48:03 | 52 | 12:31:01 | 56.06 | 0 | 2.8 | 83 | 68 | 86 | 86 | 84 | 84 |
| 08/31/2026 | 14:00:00 | 243 | 95 | 13:35:02 | 91 | 13:16:00 | 92 | 61 | 13:21:01 | 49 | 13:38:05 | 56.27 | 0 | 3.1 | 88 | 52 | 87 | 87 | 85 | 85 |
| 08/31/2026 | 15:00:00 | 243 | 95 | 14:22:04 | 92 | 14:56:03 | 92 | 62 | 14:36:00 | 49 | 14:21:04 | 55.37 | 0 | 2.5 | 74 | 33 | 87 | 87 | 85 | 85 |
| 08/31/2026 | 16:00:00 | 243 | 97 | 15:12:05 | 92 | 15:43:02 | 95 | 60 | 15:01:05 | 48 | 15:14:05 | 49.85 | 0 | 2.4 | 96 | 33 | 87 | 87 | 86 | 86 |
| 08/31/2026 | 17:00:00 | 243 | 96 | 16:07:01 | 89 | 17:00:00 | 89 | 70 | 17:00:00 | 50 | 16:09:00 | 70.18 | 0 | 2.4 | 73 | 16 | 87 | 87 | 86 | 86 |
| 08/31/2026 | 18:00:00 | 243 | 89 | 17:58:01 | 85 | 17:17:04 | 89 | 81 | 17:24:03 | 63 | 17:56:03 | 68.6 | 0 | 1.3 | 31 | 6 | 86 | 86 | 85 | 85 |
| 08/31/2026 | 19:00:00 | 243 | 89 | 18:00:00 | 81 | 18:59:04 | 82 | 83 | 18:57:00 | 64 | 18:00:04 | 82.4 | 0 | 1.3 | 37 | 1 | 86 | 85 | 85 | 85 |
| 08/31/2026 | 20:00:00 | 243 | 82 | 19:00:01 | 79 | 19:53:03 | 80 | 88 | 19:55:02 | 82 | 19:07:03 | 87.2 | 0 | 0.3 | 88 | 0 | 85 | 85 | 85 | 85 |
| 08/31/2026 | 21:00:00 | 243 | 80 | 20:00:04 | 78 | 20:46:01 | 78 | 90 | 20:37:03 | 87 | 20:01:02 | 90 | 0 | 0.1 | 88 | 0 | 84 | 84 | 84 | 84 |
| 08/31/2026 | 22:00:00 | 243 | 78 | 21:43:01 | 76 | 21:37:04 | 77 | 91 | 21:18:00 | 86 | 21:41:04 | 88.1 | 0 | 0.3 | 81 | 0 | 84 | 83 | 84 | 84 |
| 08/31/2026 | 23:00:00 | 243 | 78 | 22:02:02 | 75 | 22:59:04 | 76 | 93 | 22:50:04 | 88 | 22:00:04 | 92.8 | 0 | 0.4 | 146 | 0 | 83 | 83 | 84 | 83 |
| 09/01/2026 | 0:00:00 | 244 | 76 | 23:41:02 | 75 | 23:59:00 | 75 | 94 | 23:40:03 | 93 | 23:59:03 | 92.7 | 0 | 0.6 | 5 | 0 | 83 | 82 | 83 | 83 |
| 09/01/2026 | 1:00:00 | 244 | 75 | 0:03:05 | 74 | 0:59:03 | 74 | 94 | 0:59:05 | 93 | 0:13:03 | 94 | 0 | 0.2 | 14 | 0 | 82 | 82 | 83 | 83 |
| 09/01/2026 | 2:00:00 | 244 | 74 | 1:25:05 | 73 | 1:59:04 | 73 | 95 | 1:58:00 | 94 | 1:02:05 | 95.2 | 0 | 0.3 | 32 | 0 | 82 | 82 | 82 | 82 |
| 09/01/2026 | 3:00:00 | 244 | 74 | 2:27:05 | 73 | 3:00:00 | 73 | 96 | 2:25:04 | 95 | 2:22:03 | 95.4 | 0 | 0.2 | 7 | 0 | 82 | 81 | 82 | 82 |
| 09/01/2026 | 4:00:00 | 244 | 73 | 3:42:05 | 73 | 3:59:04 | 73 | 96 | 3:35:01 | 95 | 3:00:01 | 96 | 0 | 0.1 | 110 | 0 | 81 | 81 | 82 | 82 |
| 09/01/2026 | 5:00:00 | 244 | 73 | 4:32:02 | 72 | 4:58:04 | 72 | 97 | 4:28:04 | 96 | 4:00:01 | 96.6 | 0 | 0.1 | 137 | 0 | 81 | 81 | 82 | 81 |
| 09/01/2026 | 6:00:00 | 244 | 73 | 5:59:03 | 72 | 5:31:04 | 73 | 97 | 5:59:00 | 97 | 5:00:01 | 97.1 | 0 | 0.0 | 303 | 0 | 81 | 80 | 81 | 81 |
| 09/01/2026 | 7:00:00 | 244 | 82 | 7:00:00 | 73 | 6:00:03 | 82 | 97 | 6:17:04 | 84 | 6:59:04 | 84.2 | 0 | 0.3 | 1 | 12 | 80 | 80 | 81 | 81 |
| 09/01/2026 | 8:00:00 | 244 | 85 | 7:56:03 | 82 | 7:00:00 | 85 | 85 | 7:01:02 | 77 | 7:59:01 | 77.47 | 0 | 1.1 | 78 | 28 | 81 | 81 | 81 | 81 |
| 09/01/2026 | 9:00:00 | 244 | 91 | 8:47:01 | 85 | 8:03:04 | 90 | 80 | 8:04:00 | 62 | 8:37:05 | 68.25 | 0 | 1.4 | 86 | 45 | 81 | 82 | 81 | 81 |
| 09/01/2026 | 10:00:00 | 244 | 92 | 9:58:02 | 89 | 9:02:04 | 92 | 70 | 9:40:00 | 61 | 9:44:04 | 62.36 | 0 | 2.3 | 115 | 56 | 82 | 83 | 82 | 82 |
| 09/01/2026 | 11:00:00 | 244 | 93 | 10:56:03 | 90 | 10:45:04 | 92 | 68 | 10:55:03 | 58 | 10:58:02 | 63.61 | 0 | 2.7 | 102 | 49 | 84 | 84 | 82 | 83 |
| 09/01/2026 | 12:00:00 | 244 | 94 | 11:26:05 | 91 | 11:16:01 | 92 | 65 | 11:16:04 | 55 | 11:24:00 | 59.36 | 0 | 2.9 | 88 | 55 | 85 | 85 | 83 | 83 |
| 09/01/2026 | 13:00:00 | 244 | 97 | 12:55:01 | 91 | 12:21:00 | 96 | 65 | 12:01:02 | 51 | 12:57:04 | 55.23 | 0 | 2.8 | 81 | 67 | 86 | 86 | 84 | 84 |
| 09/01/2026 | 14:00:00 | 244 | 97 | 13:22:03 | 93 | 13:50:04 | 95 | 62 | 13:55:03 | 50 | 13:26:05 | 56.85 | 0 | 3.3 | 143 | 55 | 87 | 88 | 85 | 85 |
| 09/01/2026 | 15:00:00 | 244 | 96 | 14:11:02 | 92 | 14:55:00 | 92 | 67 | 14:54:02 | 49 | 14:11:04 | 64.2 | 0 | 1.7 | 84 | 29 | 88 | 88 | 86 | 86 |
| 09/01/2026 | 16:00:00 | 244 | 94 | 15:37:05 | 91 | 15:59:04 | 91 | 72 | 15:23:02 | 57 | 15:39:05 | 64 | 0 | 2.8 | 285 | 26 | 88 | 87 | 86 | 86 |
| 09/01/2026 | 17:00:00 | 244 | 93 | 16:23:02 | 88 | 16:58:03 | 88 | 81 | 16:55:00 | 61 | 16:21:00 | 80 | 0 | 1.7 | 10 | 9 | 87 | 87 | 86 | 86 |
| 09/01/2026 | 18:00:00 | 244 | 91 | 17:31:02 | 87 | 17:06:03 | 88 | 84 | 17:03:00 | 74 | 17:26:00 | 79.9 | 0 | 1.3 | 7 | 10 | 87 | 87 | 86 | 86 |
| 09/01/2026 | 19:00:00 | 244 | 88 | 18:00:00 | 81 | 18:59:04 | 81 | 89 | 19:00:00 | 76 | 18:05:01 | 88.5 | 0 | 1.0 | 17 | 1 | 86 | 86 | 86 | 85 |
| 09/01/2026 | 20:00:00 | 244 | 81 | 19:00:01 | 79 | 19:53:04 | 79 | 90 | 19:59:01 | 87 | 19:41:05 | 90.1 | 0 | 0.5 | 359 | 0 | 86 | 85 | 85 | 85 |
| 09/01/2026 | 21:00:00 | 244 | 79 | 20:00:01 | 78 | 20:35:03 | 78 | 91 | 20:05:00 | 89 | 20:15:02 | 89.6 | 0 | 0.8 | 13 | 0 | 85 | 84 | 85 | 85 |
| 09/01/2026 | 22:00:00 | 244 | 78 | 21:00:01 | 77 | 21:53:00 | 77 | 93 | 21:56:02 | 89 | 21:05:04 | 92 | 0 | 0.3 | 5 | 0 | 84 | 84 | 84 | 84 |
| 09/01/2026 | 23:00:00 | 244 | 77 | 22:26:01 | 76 | 22:56:04 | 76 | 93 | 22:59:05 | 91 | 22:16:00 | 93.3 | 0 | 0.2 | 9 | 0 | 84 | 83 | 84 | 84 |
| 09/02/2026 | 0:00:00 | 245 | 77 | 23:03:01 | 75 | 23:56:01 | 75 | 94 | 23:44:00 | 93 | 23:56:00 | 93.3 | 0 | 0.1 | 139 | 0 | 83 | 83 | 84 | 83 |
| 09/02/2026 | 1:00:00 | 245 | 76 | 0:33:03 | 75 | 0:50:03 | 75 | 96 | 1:00:00 | 93 | 0:00:00 | 95.9 | 0 | 0.3 | 93 | 0 | 83 | 82 | 83 | 83 |
| 09/02/2026 | 2:00:00 | 245 | 76 | 1:03:03 | 75 | 1:59:04 | 75 | 96 | 1:42:00 | 95 | 1:14:03 | 95.7 | 0 | 0.3 | 170 | 0 | 82 | 82 | 83 | 83 |
| 09/02/2026 | 3:00:00 | 245 | 75 | 2:40:04 | 74 | 2:59:04 | 74 | 97 | 2:40:04 | 96 | 2:01:02 | 96.3 | 0 | 0.1 | 179 | 0 | 82 | 82 | 83 | 82 |
| 09/02/2026 | 4:00:00 | 245 | 74 | 3:14:00 | 74 | 3:25:05 | 74 | 97 | 3:38:04 | 96 | 3:02:02 | 96.8 | 0 | 0.2 | 124 | 0 | 82 | 81 | 82 | 82 |
| 09/02/2026 | 5:00:00 | 245 | 74 | 4:00:01 | 73 | 4:56:00 | 73 | 97 | 4:36:04 | 97 | 4:06:05 | 97 | 0 | 0.0 | 171 | 0 | 81 | 81 | 82 | 82 |
| 09/02/2026 | 6:00:00 | 245 | 74 | 5:41:04 | 73 | 5:12:05 | 74 | 98 | 5:40:01 | 97 | 5:00:02 | 97.3 | 0 | 0.1 | 142 | 0 | 81 | 81 | 82 | 82 |
| 09/02/2026 | 7:00:00 | 245 | 79 | 7:00:00 | 74 | 6:03:02 | 79 | 98 | 6:35:05 | 93 | 7:00:00 | 92.9 | 0 | 0.1 | 289 | 12 | 81 | 81 | 82 | 81 |
| 09/02/2026 | 8:00:00 | 245 | 87 | 7:38:01 | 79 | 7:00:00 | 85 | 93 | 7:00:03 | 76 | 7:39:02 | 80.5 | 0 | 0.7 | 350 | 30 | 81 | 82 | 81 | 82 |
| 09/02/2026 | 9:00:00 | 245 | 89 | 8:46:05 | 85 | 8:04:04 | 89 | 82 | 8:00:02 | 72 | 8:45:03 | 74.81 | 0 | 1.2 | 323 | 43 | 82 | 83 | 82 | 82 |
| 09/02/2026 | 10:00:00 | 245 | 91 | 9:39:05 | 88 | 9:07:03 | 91 | 77 | 9:16:01 | 67 | 9:43:02 | 71.94 | 0 | 1.5 | 239 | 57 | 83 | 84 | 82 | 82 |
| 09/02/2026 | 11:00:00 | 245 | 93 | 10:51:03 | 89 | 10:18:05 | 92 | 74 | 10:08:04 | 60 | 10:52:00 | 63.2 | 0 | 1.9 | 341 | 65 | 84 | 85 | 83 | 83 |
| 09/02/2026 | 12:00:00 | 245 | 94 | 11:57:04 | 91 | 11:20:05 | 94 | 69 | 11:08:03 | 61 | 11:58:01 | 63.28 | 0 | 2.7 | 240 | 64 | 86 | 86 | 84 | 84 |
| 09/02/2026 | 13:00:00 | 245 | 96 | 12:28:02 | 89 | 12:58:04 | 89 | 70 | 12:57:05 | 56 | 12:32:04 | 67.94 | 0 | 2.6 | 178 | 60 | 87 | 88 | 85 | 85 |
| 09/02/2026 | 14:00:00 | 245 | 94 | 13:49:00 | 89 | 13:00:01 | 94 | 72 | 13:06:02 | 58 | 13:49:02 | 60.51 | 0 | 4.3 | 10 | 76 | 88 | 89 | 86 | 86 |
| 09/02/2026 | 15:00:00 | 245 | 97 | 14:39:00 | 93 | 14:03:01 | 95 | 65 | 14:01:03 | 53 | 14:41:00 | 57.94 | 0 | 2.9 | 251 | 62 | 89 | 89 | 86 | 87 |
| 09/02/2026 | 16:00:00 | 245 | 97 | 15:55:02 | 94 | 15:32:04 | 96 | 64 | 15:19:00 | 55 | 15:03:05 | 57.11 | 0 | 2.9 | 348 | 49 | 89 | 89 | 87 | 87 |
| 09/02/2026 | 17:00:00 | 245 | 97 | 16:16:05 | 86 | 16:59:04 | 86 | 69 | 16:58:05 | 52 | 16:17:00 | 68.86 | 0 | 3.6 | 358 | 25 | 89 | 89 | 87 | 87 |
| 09/02/2026 | 18:00:00 | 245 | 86 | 17:00:00 | 84 | 17:39:00 | 85 | 77 | 17:38:01 | 68 | 17:00:04 | 75.15 | 0 | 3.1 | 193 | 5 | 88 | 88 | 87 | 87 |
| 09/02/2026 | 19:00:00 | 245 | 85 | 18:02:04 | 81 | 18:59:05 | 81 | 85 | 19:00:00 | 74 | 18:00:05 | 84.5 | 0 | 1.0 | 193 | 0 | 87 | 87 | 87 | 86 |
| 09/02/2026 | 20:00:00 | 245 | 81 | 19:00:00 | 78 | 19:59:02 | 78 | 90 | 19:50:03 | 85 | 19:00:00 | 88 | 0 | 0.8 | 33 | 0 | 86 | 86 | 86 | 86 |
| 09/02/2026 | 21:00:00 | 245 | 79 | 20:05:05 | 77 | 20:34:03 | 77 | 93 | 20:39:03 | 88 | 20:00:03 | 92.3 | 0 | 0.5 | 115 | 0 | 85 | 85 | 85 | 85 |
| 09/02/2026 | 22:00:00 | 245 | 77 | 21:00:00 | 76 | 21:46:01 | 76 | 94 | 21:58:02 | 92 | 21:00:03 | 94.3 | 0 | 0.5 | 15 | 0 | 85 | 84 | 85 | 85 |
| 09/02/2026 | 23:00:00 | 245 | 76 | 22:16:03 | 75 | 22:56:02 | 75 | 95 | 22:57:04 | 94 | 22:00:02 | 95 | 0 | 0.6 | 36 | 0 | 84 | 84 | 84 | 84 |
| 09/03/2026 | 0:00:00 | 246 | 78 | 23:36:05 | 75 | 23:04:04 | 76 | 96 | 23:07:01 | 89 | 23:35:01 | 91.9 | 0 | 1.6 | 109 | 0 | 84 | 83 | 84 | 84 |
| 09/03/2026 | 1:00:00 | 246 | 76 | 0:00:00 | 75 | 0:59:00 | 75 | 95 | 0:59:01 | 92 | 0:01:05 | 94.5 | 0 | 0.5 | 21 | 0 | 83 | 83 | 84 | 83 |
| 09/03/2026 | 2:00:00 | 246 | 75 | 1:31:01 | 74 | 1:56:00 | 74 | 96 | 1:30:01 | 95 | 1:00:01 | 95.9 | 0 | 0.3 | 9 | 0 | 83 | 83 | 83 | 83 |
| 09/03/2026 | 3:00:00 | 246 | 74 | 2:49:04 | 74 | 2:58:00 | 74 | 97 | 2:49:05 | 96 | 2:00:05 | 96.3 | 0 | 0.2 | 111 | 0 | 82 | 82 | 83 | 83 |
| 09/03/2026 | 4:00:00 | 246 | 74 | 3:00:01 | 73 | 3:48:03 | 73 | 97 | 3:55:02 | 96 | 3:04:01 | 96.8 | 0 | 0.1 | 13 | 0 | 82 | 82 | 83 | 83 |
| 09/03/2026 | 5:00:00 | 246 | 73 | 4:00:04 | 73 | 4:23:05 | 73 | 97 | 4:51:00 | 97 | 4:01:01 | 97 | 0 | 0.0 | 29 | 0 | 82 | 82 | 82 | 82 |
| 09/03/2026 | 6:00:00 | 246 | 73 | 5:59:02 | 73 | 5:35:02 | 73 | 98 | 5:59:00 | 97 | 5:11:03 | 97.5 | 0 | 0.1 | 190 | 0 | 81 | 81 | 82 | 82 |
| 09/03/2026 | 7:00:00 | 246 | 79 | 6:58:03 | 73 | 6:03:00 | 78 | 98 | 6:00:04 | 89 | 6:59:04 | 89 | 0 | 0.0 | 192 | 11 | 81 | 81 | 82 | 82 |
| 09/03/2026 | 8:00:00 | 246 | 85 | 7:33:00 | 78 | 7:02:00 | 83 | 91 | 7:04:04 | 79 | 7:55:05 | 80.2 | 0 | 1.1 | 7 | 27 | 81 | 82 | 82 | 82 |
| 09/03/2026 | 9:00:00 | 246 | 88 | 8:53:03 | 83 | 8:01:00 | 87 | 83 | 8:01:05 | 73 | 8:53:05 | 74.99 | 0 | 2.6 | 360 | 43 | 82 | 83 | 82 | 82 |
| 09/03/2026 | 10:00:00 | 246 | 91 | 9:50:03 | 87 | 9:07:00 | 90 | 77 | 9:08:04 | 67 | 9:51:00 | 69.68 | 0 | 3.3 | 8 | 56 | 83 | 84 | 82 | 83 |
| 09/03/2026 | 11:00:00 | 246 | 93 | 10:50:05 | 90 | 10:00:00 | 93 | 72 | 10:12:01 | 60 | 10:29:02 | 68.55 | 0 | 2.6 | 26 | 66 | 84 | 85 | 83 | 83 |
| 09/03/2026 | 12:00:00 | 246 | 95 | 11:37:02 | 93 | 11:00:00 | 95 | 68 | 11:00:00 | 57 | 11:48:04 | 58.44 | 0 | 2.5 | 342 | 76 | 86 | 86 | 84 | 84 |
| 09/03/2026 | 13:00:00 | 246 | 95 | 12:10:04 | 92 | 12:33:01 | 93 | 65 | 12:33:00 | 56 | 12:05:00 | 63.9 | 0 | 1.8 | 298 | 30 | 87 | 88 | 85 | 85 |
| 09/03/2026 | 14:00:00 | 246 | 97 | 13:25:04 | 93 | 13:02:05 | 94 | 65 | 13:34:02 | 53 | 13:27:02 | 58.45 | 0 | 3.3 | 263 | 51 | 88 | 88 | 86 | 86 |
| 09/03/2026 | 15:00:00 | 246 | 94 | 14:01:01 | 84 | 14:56:02 | 85 | 79 | 14:57:05 | 57 | 14:06:02 | 77.06 | 0 | 3.0 | 152 | 17 | 88 | 88 | 86 | 86 |
| 09/03/2026 | 16:00:00 | 246 | 87 | 15:09:00 | 83 | 16:00:00 | 83 | 80 | 15:36:04 | 73 | 15:06:05 | 79.19 | 0 | 2.8 | 125 | 10 | 88 | 87 | 86 | 86 |
| 09/03/2026 | 17:00:00 | 246 | 83 | 16:04:02 | 82 | 16:50:03 | 82 | 86 | 16:45:05 | 78 | 16:00:02 | 83.8 | 0 | 1.6 | 181 | 3 | 87 | 86 | 86 | 86 |
| 09/03/2026 | 18:00:00 | 246 | 82 | 17:25:04 | 81 | 17:59:05 | 81 | 86 | 17:59:00 | 82 | 17:11:03 | 85.2 | 0 | 1.0 | 313 | 5 | 86 | 86 | 86 | 85 |
| 09/03/2026 | 19:00:00 | 246 | 81 | 18:00:00 | 78 | 18:59:05 | 78 | 91 | 18:59:01 | 84 | 18:08:00 | 91 | 0 | 1.1 | 4 | 0 | 86 | 85 | 85 | 85 |
| 09/03/2026 | 20:00:00 | 246 | 78 | 19:11:00 | 77 | 19:48:03 | 77 | 93 | 19:30:01 | 91 | 19:06:03 | 91.9 | 0 | 0.4 | 35 | 0 | 85 | 85 | 85 | 85 |
| 09/03/2026 | 21:00:00 | 246 | 77 | 20:06:05 | 76 | 20:54:03 | 76 | 95 | 20:59:02 | 92 | 20:03:01 | 94.5 | 0 | 0.2 | 156 | 0 | 84 | 84 | 84 | 84 |
| 09/03/2026 | 22:00:00 | 246 | 76 | 21:28:00 | 76 | 21:30:03 | 76 | 95 | 21:33:02 | 94 | 22:00:00 | 93.7 | 0 | 0.8 | 133 | 0 | 84 | 83 | 84 | 84 |
| 09/03/2026 | 23:00:00 | 246 | 76 | 22:01:05 | 75 | 22:47:01 | 75 | 96 | 22:59:05 | 93 | 22:07:02 | 95.9 | 0 | 0.4 | 70 | 0 | 83 | 83 | 84 | 83 |
| 09/04/2026 | 0:00:00 | 247 | 75 | 23:11:03 | 75 | 23:31:05 | 75 | 96 | 23:40:01 | 95 | 23:14:00 | 95.8 | 0 | 0.8 | 29 | 0 | 83 | 83 | 83 | 83 |
| 09/04/2026 | 1:00:00 | 247 | 75 | 0:00:01 | 74 | 0:50:01 | 74 | 97 | 0:59:05 | 96 | 0:06:01 | 96.6 | 0 | 0.3 | 5 | 0 | 82 | 82 | 83 | 83 |
| 09/04/2026 | 2:00:00 | 247 | 75 | 1:45:02 | 74 | 1:16:04 | 74 | 97 | 1:44:04 | 96 | 1:15:05 | 96.9 | 0 | 0.4 | 25 | 0 | 82 | 82 | 83 | 83 |
| 09/04/2026 | 3:00:00 | 247 | 74 | 2:24:05 | 74 | 2:03:02 | 74 | 97 | 2:25:01 | 97 | 2:03:04 | 97.2 | 0 | 0.1 | 8 | 0 | 82 | 82 | 82 | 82 |
| 09/04/2026 | 4:00:00 | 247 | 75 | 3:59:01 | 74 | 3:06:03 | 75 | 98 | 4:00:00 | 97 | 3:06:04 | 97.5 | 0 | 0.1 | 161 | 0 | 82 | 82 | 82 | 82 |
| 09/04/2026 | 5:00:00 | 247 | 75 | 4:12:03 | 74 | 4:09:03 | 74 | 98 | 4:13:00 | 97 | 4:07:01 | 97.3 | 0 | 0.3 | 283 | 0 | 82 | 81 | 82 | 82 |
| 09/04/2026 | 6:00:00 | 247 | 75 | 5:20:05 | 74 | 5:32:03 | 75 | 98 | 5:21:00 | 97 | 5:29:02 | 97.5 | 0 | 0.2 | 49 | 0 | 81 | 81 | 82 | 82 |
| 09/04/2026 | 7:00:00 | 247 | 77 | 6:59:04 | 75 | 6:00:00 | 77 | 98 | 6:03:02 | 96 | 6:58:03 | 96.2 | 0 | 0.4 | 159 | 6 | 81 | 81 | 82 | 82 |
| 09/04/2026 | 8:00:00 | 247 | 82 | 7:58:03 | 77 | 7:00:03 | 82 | 96 | 7:03:02 | 85 | 7:59:01 | 85.1 | 0 | 0.3 | 217 | 20 | 81 | 82 | 82 | 82 |
| 09/04/2026 | 9:00:00 | 247 | 87 | 8:58:03 | 82 | 8:00:00 | 86 | 86 | 8:02:00 | 72 | 8:55:05 | 74.97 | 0 | 2.6 | 332 | 42 | 82 | 83 | 82 | 82 |
| 09/04/2026 | 10:00:00 | 247 | 89 | 9:34:01 | 86 | 9:01:01 | 89 | 78 | 9:04:05 | 68 | 9:34:04 | 73.91 | 0 | 2.3 | 358 | 45 | 83 | 84 | 82 | 83 |
| 09/04/2026 | 11:00:00 | 247 | 92 | 10:51:00 | 89 | 10:00:00 | 92 | 74 | 10:00:00 | 62 | 10:14:04 | 64.7 | 0 | 2.2 | 348 | 66 | 84 | 85 | 83 | 83 |
| 09/04/2026 | 12:00:00 | 247 | 95 | 11:53:01 | 92 | 11:02:05 | 94 | 72 | 11:06:04 | 59 | 11:41:01 | 60.85 | 0 | 2.7 | 195 | 72 | 85 | 86 | 84 | 84 |
| 09/04/2026 | 13:00:00 | 247 | 94 | 12:00:00 | 76 | 12:40:01 | 79 | 92 | 12:34:00 | 61 | 12:00:00 | 87.3 | 0.28 | 6.9 | 326 | 10 | 86 | 86 | 85 | 85 |
| 09/04/2026 | 14:00:00 | 247 | 85 | 13:36:05 | 79 | 13:00:00 | 83 | 90 | 13:21:02 | 79 | 13:37:01 | 82 | 0 | 5.7 | 331 | 45 | 85 | 86 | 85 | 85 |
| 09/04/2026 | 15:00:00 | 247 | 84 | 14:05:00 | 80 | 14:57:04 | 81 | 91 | 14:30:00 | 80 | 14:03:02 | 89.1 | 0.04 | 3.5 | 360 | 22 | 86 | 86 | 85 | 85 |
| 09/04/2026 | 16:00:00 | 247 | 81 | 15:02:03 | 76 | 15:45:00 | 76 | 93 | 15:48:03 | 87 | 15:24:03 | 92.2 | 0.09 | 3.9 | 185 | 3 | 86 | 85 | 85 | 85 |
| 09/04/2026 | 17:00:00 | 247 | 78 | 16:59:05 | 76 | 16:01:04 | 78 | 95 | 16:59:05 | 92 | 16:01:05 | 94.8 | 0 | 1.3 | 152 | 4 | 85 | 85 | 85 | 85 |
| 09/04/2026 | 18:00:00 | 247 | 78 | 17:51:04 | 77 | 17:13:05 | 78 | 95 | 17:00:00 | 93 | 17:47:03 | 93.6 | 0.01 | 1.2 | 233 | 3 | 85 | 84 | 84 | 84 |
| 09/04/2026 | 19:00:00 | 247 | 78 | 18:01:01 | 77 | 18:47:00 | 78 | 96 | 18:56:05 | 93 | 18:04:03 | 95.4 | 0 | 0.7 | 206 | 0 | 84 | 84 | 84 | 84 |
| 09/04/2026 | 20:00:00 | 247 | 78 | 19:01:04 | 77 | 19:55:03 | 77 | 96 | 19:01:01 | 94 | 19:24:00 | 94.5 | 0 | 3.2 | 174 | 0 | 84 | 83 | 84 | 84 |
| Average | 82.86 | 79.94 | 81.32 | 84.52 | 76.95 | 80.89 | 0 | 1.47 | 20.28 | 83.66 | 83.66 | 83.38 | 83.37 | |||||||
| Total | 0.42 |